LFOTLFMU

Guest
Details From LFOT - Tours Val De Loire Ab
To LFMU - Béziers Vias
Flight Number -
Tags Generated
Created
Modified
Stats Distance 270 nm / 501 km
Max Altitude 0 ft / 0 m
Waypoints 3
Social Downloads 1
Likes 0
Share VATSIM

Download

Looking for another format? Having issues loading an existing format? Contact us
Advertisement - Login to hide

Notes

Generated

Route

LFOT BOLSA LFMU

ID Type Via Altitude Latitude Longitude Leg Dist Tot Dist Heading (true) Name
O LFOT APT - 0 ft / 0 m 47.42722˚ 0.72658˚ - 0 nm - Tours Val De Loire AB
BOLSA FIX - 0 ft / 0 m 43.33408˚ 3.31508˚ 268 nm 268 nm 155° / 157° -
O LFMU APT - 0 ft / 0 m 43.32402˚ 3.34239˚ 1 nm 270 nm 117° / 117° -

Altitude Profile

Advertisement - Login to hide

Weather


0- 5 10 15 20 25 30 35+ Temperature / ° C

Clouds and Precipitation
Forecast for 2017-12-13 18:00 UTC. Updated an hour ago

Ground ~20,000 ft ~40,000 ft Winds

LFOT

Details ICAO LFOT (TUF)
Name Tours Val De Loire AB
Region France
Timezone Europe/Paris (UTC+1.0)
Stats Elevation 356 ft / 109 m (AMSL)
Location 47.432974° 0.728402°
Runways 2
Magnetic Variation 0.192° E

METAR

LFOT 131830Z AUTO 23016KT 5000 DZ BR OVC005 11/11 Q1000 TEMPO 2500 RA BKN006 SCT015TCU BECMG 26015G30KT

Decode

TAF

TAF LFOT 131700Z 1318/1418 26015G30KT 6000 -RA BKN012 TEMPO 1318/1320 28020G40KT 2500 RA BKN006 SCT015TCU BECMG 1320/1322 SCT030 BKN060 PROB40 TEMPO 1323/1402 4000 SHRA SCT020TCU BECMG 1400/1403 24012G22KT TEMPO 1405/1407 3000 SHRA BKN012 SCT020TCU TEMPO 1411/1418 24015G35KT 3000 SHRA BKN020TCU PROB30 TEMPO 1415/1418 2500 -TSRA SCT015CB

Decode

Departure Runways

ID Width Length Bearing (true) Bearing (mag) Surface Threshold Offset Overrun Length
02 148 ft / 45 m 7,891 ft / 2,405 m 15.22° 15.03° Concrete 0 ft / 0 m 968 ft / 295 m
02R 197 ft / 60 m 4,925 ft / 1,501 m 15.24° 15.05° Grass 0 ft / 0 m 0 ft / 0 m
20 148 ft / 45 m 7,891 ft / 2,405 m 195.22° 195.03° Concrete 0 ft / 0 m 393 ft / 120 m
20L 197 ft / 60 m 4,925 ft / 1,501 m 195.24° 195.05° Grass 0 ft / 0 m 0 ft / 0 m

LFMU

Details ICAO LFMU (BZR)
Name Beziers Vias
Region France
Timezone Europe/Paris (UTC+1.0)
Stats Elevation 54 ft / 16 m (AMSL)
Location 43.323422° 3.353573°
Runways 1
Magnetic Variation 1.099° E

METAR

LFMU 131830Z AUTO 31003KT CAVOK 07/04 Q1017 NOSIG

Decode

TAF

TAF LFMU 131400Z 1315/1415 29005KT CAVOK TEMPO 1321/1409 BKN014 TEMPO 1322/1406 -RA

Decode

Destination Runways

ID Width Length Bearing (true) Bearing (mag) Surface Threshold Offset Overrun Length
10 115 ft / 35 m 5,955 ft / 1,815 m 94.20° 93.10° Asphalt 459 ft / 140 m 0 ft / 0 m
28 115 ft / 35 m 5,955 ft / 1,815 m 274.22° 273.12° Asphalt 0 ft / 0 m 0 ft / 0 m

Approach Navaids

Runway Type Ident Frequency Range Bearing (true) Bearing (mag) Slope Elevation
10 Localiser ZR 109.35 MHz 18 nm / 33 km 94.52° 93.42° - 50 ft / 15 m (AMSL)
10 Glidescope ZR 109.35 MHz 10 nm / 19 km 94.21° 93.11° 3.00° 92 ft / 28 m (AMSL)
10 DME ZR 109.35 MHz 18 nm / 33 km - - - 92 ft / 28 m (AMSL)